createdAt,value
2018-08-31T00:00:41.209Z,58.90
2018-08-31T00:03:10.789Z,58.70
2018-08-31T00:05:56.171Z,58.60
2018-08-31T00:10:41.282Z,58.60
2018-08-31T00:13:10.370Z,58.60
2018-08-31T00:15:38.796Z,58.70
2018-08-31T00:18:07.369Z,58.70
2018-08-31T00:20:35.769Z,58.70
2018-08-31T00:23:04.343Z,58.80
2018-08-31T00:27:18.077Z,58.80
2018-08-31T00:29:57.657Z,58.80
2018-08-31T00:34:45.509Z,58.80
2018-08-31T00:39:29.807Z,58.70
2018-08-31T00:43:46.656Z,58.80
2018-08-31T00:46:14.991Z,58.80
2018-08-31T00:48:43.427Z,59.40
2018-08-31T00:51:11.989Z,58.70
2018-08-31T00:53:40.494Z,58.80
2018-08-31T00:56:08.870Z,58.80
2018-08-31T00:58:37.207Z,58.80
2018-08-31T01:01:05.718Z,58.70
2018-08-31T01:03:34.067Z,58.80
2018-08-31T01:06:02.465Z,58.80
2018-08-31T01:08:30.854Z,58.80
2018-08-31T01:10:59.180Z,58.70
2018-08-31T01:13:27.702Z,58.70
2018-08-31T01:15:56.132Z,58.80
2018-08-31T01:18:24.472Z,58.70
2018-08-31T01:20:52.836Z,58.70
2018-08-31T01:23:21.164Z,58.70
2018-08-31T01:25:49.577Z,58.70
2018-08-31T01:28:18.019Z,58.60
2018-08-31T01:30:46.671Z,58.70
2018-08-31T01:33:15.154Z,58.60
2018-08-31T01:35:43.517Z,58.70
2018-08-31T01:38:11.850Z,58.60
2018-08-31T01:40:40.230Z,58.60
2018-08-31T01:43:08.522Z,58.60
2018-08-31T01:45:37.004Z,58.60
2018-08-31T01:48:05.499Z,58.60
2018-08-31T01:50:33.854Z,58.60
2018-08-31T01:53:02.170Z,58.60
2018-08-31T01:55:30.568Z,58.60
2018-08-31T01:57:59.718Z,58.50
2018-08-31T02:00:28.340Z,58.10
2018-08-31T02:02:56.904Z,57.90
2018-08-31T02:05:25.316Z,57.70
2018-08-31T02:07:53.792Z,57.80
2018-08-31T02:10:22.284Z,57.70
2018-08-31T02:12:50.642Z,57.60
2018-08-31T02:15:18.934Z,57.50
2018-08-31T02:17:47.291Z,57.60
2018-08-31T02:20:15.784Z,57.60
2018-08-31T02:22:44.146Z,57.80
2018-08-31T02:25:12.692Z,58.00
2018-08-31T02:27:41.245Z,58.10
2018-08-31T02:30:09.690Z,58.20
2018-08-31T02:32:37.988Z,58.20
2018-08-31T02:35:06.308Z,58.20
2018-08-31T02:37:34.646Z,58.30
2018-08-31T02:40:03.004Z,58.30
2018-08-31T02:42:31.528Z,58.30
2018-08-31T02:44:59.942Z,58.30
2018-08-31T02:47:28.490Z,58.40
2018-08-31T02:49:56.807Z,58.30
2018-08-31T02:52:25.170Z,58.80
2018-08-31T02:54:53.452Z,58.40
2018-08-31T02:57:21.774Z,58.30
2018-08-31T02:59:50.261Z,58.30
2018-08-31T03:02:18.814Z,58.30
2018-08-31T03:04:47.208Z,58.30
2018-08-31T03:07:15.559Z,58.30
2018-08-31T03:09:43.913Z,58.30
2018-08-31T03:12:12.196Z,58.30
2018-08-31T03:14:40.622Z,58.30
2018-08-31T03:17:08.971Z,58.30
2018-08-31T03:19:37.483Z,58.30
2018-08-31T03:22:06.114Z,58.30
2018-08-31T03:24:34.627Z,58.30
2018-08-31T03:27:02.996Z,58.30
2018-08-31T03:29:31.376Z,58.30
2018-08-31T03:31:59.942Z,58.30
2018-08-31T03:34:28.288Z,58.20
2018-08-31T03:36:56.652Z,58.20
2018-08-31T03:39:25.212Z,58.30
2018-08-31T03:41:53.541Z,58.20
2018-08-31T03:44:21.922Z,58.20
2018-08-31T03:46:50.287Z,58.20
2018-08-31T03:49:18.696Z,58.10
2018-08-31T03:51:47.066Z,58.10
2018-08-31T03:54:15.370Z,58.10
2018-08-31T03:56:43.856Z,58.10
2018-08-31T03:59:12.310Z,58.00
2018-08-31T04:01:40.668Z,58.00
2018-08-31T04:04:09.034Z,58.00
2018-08-31T04:06:37.403Z,58.00
2018-08-31T04:09:07.414Z,58.00
2018-08-31T04:11:35.882Z,57.90
2018-08-31T04:14:04.444Z,57.80
2018-08-31T04:16:32.816Z,57.80
2018-08-31T04:19:09.570Z,57.80
2018-08-31T04:21:37.946Z,57.90
2018-08-31T04:24:06.400Z,58.00
2018-08-31T04:26:34.886Z,58.00
2018-08-31T04:29:03.271Z,58.00
2018-08-31T04:31:31.700Z,58.10
2018-08-31T04:34:00.154Z,58.10
2018-08-31T04:36:28.509Z,58.10
2018-08-31T04:38:56.854Z,58.00
2018-08-31T04:41:25.239Z,58.00
2018-08-31T04:43:53.886Z,57.90
2018-08-31T04:46:22.882Z,57.80
2018-08-31T04:48:51.348Z,57.80
2018-08-31T04:51:19.728Z,57.70
2018-08-31T04:53:48.148Z,57.70
2018-08-31T04:56:16.509Z,57.70
2018-08-31T04:58:44.929Z,57.70
2018-08-31T05:01:13.214Z,57.70
2018-08-31T05:03:41.733Z,57.60
2018-08-31T05:06:10.083Z,57.60
2018-08-31T05:08:38.466Z,57.50
2018-08-31T05:11:06.888Z,57.20
2018-08-31T05:13:35.308Z,57.20
2018-08-31T05:16:03.706Z,56.90
2018-08-31T05:18:32.082Z,56.80
2018-08-31T05:21:00.403Z,56.50
2018-08-31T05:23:28.745Z,56.40
2018-08-31T05:25:57.084Z,56.30
2018-08-31T05:28:25.504Z,56.20
2018-08-31T05:30:53.865Z,56.10
2018-08-31T05:33:22.283Z,56.10
2018-08-31T05:35:50.634Z,56.00
2018-08-31T05:38:18.987Z,56.00
2018-08-31T05:40:47.387Z,55.90
2018-08-31T05:43:15.711Z,55.80
2018-08-31T05:45:44.031Z,55.80
2018-08-31T05:48:12.354Z,56.40
2018-08-31T05:50:40.665Z,55.70
2018-08-31T05:53:08.998Z,55.80
2018-08-31T05:55:37.411Z,55.70
2018-08-31T05:58:05.821Z,55.80
2018-08-31T06:00:34.209Z,55.80
2018-08-31T06:03:02.784Z,55.80
2018-08-31T06:05:31.120Z,55.70
2018-08-31T06:07:59.493Z,55.80
2018-08-31T06:10:27.952Z,55.90
2018-08-31T06:13:03.000Z,55.80
2018-08-31T06:15:31.339Z,55.80
2018-08-31T06:17:59.681Z,55.80
2018-08-31T06:20:28.040Z,55.80
2018-08-31T06:22:56.388Z,55.70
2018-08-31T06:25:24.854Z,55.70
2018-08-31T06:27:53.496Z,55.70
2018-08-31T06:30:21.857Z,55.80
2018-08-31T06:32:50.165Z,55.80
2018-08-31T06:35:18.567Z,55.90
2018-08-31T06:37:46.896Z,55.90
2018-08-31T06:40:15.248Z,55.90
2018-08-31T06:42:43.630Z,56.50
2018-08-31T06:45:11.965Z,55.90
2018-08-31T06:47:40.462Z,56.00
2018-08-31T06:50:08.920Z,56.00
2018-08-31T06:52:37.309Z,56.00
2018-08-31T06:55:06.620Z,56.00
2018-08-31T06:57:35.038Z,56.10
2018-08-31T07:00:03.504Z,56.10
2018-08-31T07:02:31.866Z,56.30
2018-08-31T07:05:00.339Z,56.00
2018-08-31T07:07:28.726Z,55.90
2018-08-31T07:09:57.173Z,55.90
2018-08-31T07:12:25.738Z,55.90
2018-08-31T07:14:54.001Z,55.90
2018-08-31T07:17:22.432Z,55.80
2018-08-31T07:19:50.843Z,56.50
2018-08-31T07:22:19.179Z,55.60
2018-08-31T07:24:47.579Z,55.40
2018-08-31T07:27:15.955Z,55.30
2018-08-31T07:29:44.293Z,55.30
2018-08-31T07:32:12.811Z,55.10
2018-08-31T07:34:41.067Z,55.00
2018-08-31T07:37:09.409Z,54.90
2018-08-31T07:39:37.785Z,54.80
2018-08-31T07:42:06.123Z,54.60
2018-08-31T07:44:34.513Z,54.50
2018-08-31T07:47:03.015Z,54.40
2018-08-31T07:49:31.400Z,54.50
2018-08-31T07:51:59.771Z,54.50
2018-08-31T07:54:28.135Z,54.50
2018-08-31T07:56:56.456Z,54.40
2018-08-31T07:59:24.943Z,54.40
2018-08-31T08:01:53.255Z,54.20
2018-08-31T08:04:21.805Z,54.40
2018-08-31T08:06:50.140Z,54.50
2018-08-31T08:09:18.569Z,54.80
2018-08-31T08:11:46.916Z,54.70
2018-08-31T08:14:15.268Z,54.80
2018-08-31T08:16:43.588Z,54.90
2018-08-31T08:19:12.114Z,55.00
2018-08-31T08:21:40.531Z,54.90
2018-08-31T08:24:08.949Z,54.80
2018-08-31T08:26:37.249Z,54.70
2018-08-31T08:29:05.635Z,54.70
2018-08-31T08:31:34.086Z,54.90
2018-08-31T08:34:02.681Z,55.10
2018-08-31T08:36:31.038Z,55.00
2018-08-31T08:38:59.563Z,55.00
2018-08-31T08:41:27.887Z,55.10
2018-08-31T08:43:56.214Z,55.20
2018-08-31T08:46:24.687Z,55.30
2018-08-31T08:48:52.999Z,55.30
2018-08-31T08:51:21.395Z,55.30
2018-08-31T08:53:49.757Z,55.10
2018-08-31T08:56:18.189Z,55.10
2018-08-31T08:58:46.559Z,55.10
2018-08-31T09:01:15.029Z,55.20
2018-08-31T09:03:43.545Z,55.10
2018-08-31T09:06:12.018Z,54.90
2018-08-31T09:08:40.556Z,54.90
2018-08-31T09:11:08.912Z,54.60
2018-08-31T09:13:37.200Z,54.20
2018-08-31T09:16:05.671Z,53.90
2018-08-31T09:18:34.061Z,53.80
2018-08-31T09:21:02.408Z,53.60
2018-08-31T09:23:30.730Z,53.40
2018-08-31T09:26:01.632Z,53.30
2018-08-31T09:28:29.980Z,53.10
2018-08-31T09:30:58.365Z,53.00
2018-08-31T09:33:26.689Z,52.90
2018-08-31T09:35:55.178Z,52.60
2018-08-31T09:38:23.628Z,52.70
2018-08-31T09:40:51.989Z,52.40
2018-08-31T09:43:20.323Z,52.00
2018-08-31T09:45:48.706Z,52.10
2018-08-31T09:48:17.065Z,52.10
2018-08-31T09:50:45.382Z,52.10
2018-08-31T09:53:13.737Z,52.10
2018-08-31T09:55:42.063Z,52.00
2018-08-31T09:58:10.413Z,52.10
2018-08-31T10:00:44.189Z,52.10
2018-08-31T10:03:17.940Z,52.00
2018-08-31T10:05:46.263Z,52.30
2018-08-31T10:08:14.647Z,52.10
2018-08-31T10:10:43.004Z,52.00
2018-08-31T10:13:11.613Z,52.70
2018-08-31T10:15:40.327Z,52.30
2018-08-31T10:18:08.751Z,52.20
2018-08-31T10:20:37.134Z,51.50
2018-08-31T10:23:05.538Z,51.10
2018-08-31T10:25:34.428Z,50.80
2018-08-31T10:28:03.009Z,50.90
2018-08-31T10:30:31.376Z,51.00
2018-08-31T10:32:59.770Z,50.80
2018-08-31T10:35:28.126Z,50.40
2018-08-31T10:37:57.052Z,50.00
2018-08-31T10:40:25.924Z,49.40
2018-08-31T10:42:54.302Z,49.40
2018-08-31T10:45:22.674Z,49.50
2018-08-31T10:47:51.069Z,49.60
2018-08-31T10:50:19.425Z,49.60
2018-08-31T10:52:47.761Z,50.40
2018-08-31T10:55:16.136Z,49.90
2018-08-31T10:57:44.476Z,49.90
2018-08-31T11:00:12.850Z,50.00
2018-08-31T11:02:41.253Z,50.10
2018-08-31T11:05:09.586Z,50.10
2018-08-31T11:07:37.954Z,50.70
2018-08-31T11:10:07.004Z,50.70
2018-08-31T11:12:35.340Z,50.60
2018-08-31T11:15:03.825Z,50.70
2018-08-31T11:17:32.304Z,50.60
2018-08-31T11:20:00.692Z,50.50
2018-08-31T11:22:29.018Z,50.60
2018-08-31T11:24:59.152Z,50.80
2018-08-31T11:27:27.500Z,50.60
2018-08-31T11:29:56.777Z,50.60
2018-08-31T11:32:25.700Z,50.70
2018-08-31T11:34:54.106Z,50.90
2018-08-31T11:37:22.574Z,51.00
2018-08-31T11:39:51.093Z,50.90
2018-08-31T11:42:19.696Z,50.90
2018-08-31T11:44:48.124Z,51.00
2018-08-31T11:47:16.461Z,51.20
2018-08-31T11:49:44.825Z,51.20
2018-08-31T11:52:13.363Z,51.20
2018-08-31T11:54:41.705Z,50.90
2018-08-31T11:57:10.082Z,50.80
2018-08-31T11:59:38.448Z,50.60
2018-08-31T12:02:06.997Z,50.50
2018-08-31T12:04:35.300Z,50.40
2018-08-31T12:07:03.653Z,50.30
2018-08-31T12:09:32.092Z,50.30
2018-08-31T12:12:00.469Z,50.40
2018-08-31T12:14:28.905Z,50.50
2018-08-31T12:16:57.359Z,50.40
2018-08-31T12:19:25.767Z,50.30
2018-08-31T12:21:54.108Z,50.30
2018-08-31T12:24:22.627Z,50.50
2018-08-31T12:26:51.084Z,50.60
2018-08-31T12:29:19.458Z,50.70
2018-08-31T12:31:47.857Z,50.50
2018-08-31T12:34:16.233Z,50.60
2018-08-31T12:36:44.571Z,50.60
2018-08-31T12:39:12.998Z,50.80
2018-08-31T12:41:41.471Z,50.90
2018-08-31T12:44:09.871Z,50.90
2018-08-31T12:46:38.333Z,51.00
2018-08-31T12:49:06.725Z,51.20
2018-08-31T12:51:35.103Z,51.20
2018-08-31T12:54:03.504Z,51.60
2018-08-31T12:56:31.819Z,51.20
2018-08-31T12:59:00.225Z,50.70
2018-08-31T13:01:28.572Z,50.60
2018-08-31T13:03:56.999Z,50.70
2018-08-31T13:06:25.358Z,50.60
2018-08-31T13:08:53.691Z,50.60
2018-08-31T13:11:22.111Z,50.50
2018-08-31T13:13:50.578Z,50.30
2018-08-31T13:16:18.957Z,50.40
2018-08-31T13:18:47.313Z,50.80
2018-08-31T13:21:15.691Z,50.90
2018-08-31T13:23:44.111Z,51.00
2018-08-31T13:26:12.511Z,51.10
2018-08-31T13:28:40.893Z,51.10
2018-08-31T13:31:09.297Z,51.20
2018-08-31T13:33:37.626Z,51.10
2018-08-31T13:36:06.108Z,51.20
2018-08-31T13:38:34.526Z,51.20
2018-08-31T13:41:03.041Z,51.60
2018-08-31T13:43:31.428Z,50.90
2018-08-31T13:45:59.804Z,51.20
2018-08-31T13:48:28.118Z,51.80
2018-08-31T13:50:56.766Z,51.60
2018-08-31T13:53:25.091Z,51.30
2018-08-31T13:55:53.483Z,51.40
2018-08-31T13:58:21.935Z,51.60
2018-08-31T14:00:50.242Z,51.80
2018-08-31T14:03:18.648Z,51.90
2018-08-31T14:05:46.977Z,52.00
2018-08-31T14:08:15.404Z,52.10
2018-08-31T14:10:43.810Z,52.10
2018-08-31T14:13:12.164Z,52.10
2018-08-31T14:15:40.496Z,52.10
2018-08-31T14:18:08.858Z,52.70
2018-08-31T14:20:37.494Z,52.90
2018-08-31T14:23:05.934Z,53.00
2018-08-31T14:25:34.292Z,53.20
2018-08-31T14:28:02.756Z,53.00
2018-08-31T14:30:31.162Z,53.00
2018-08-31T14:32:59.507Z,52.90
2018-08-31T14:35:27.811Z,52.90
2018-08-31T14:37:56.218Z,52.80
2018-08-31T14:40:24.705Z,52.70
2018-08-31T14:42:53.095Z,52.90
2018-08-31T14:45:21.433Z,53.30
2018-08-31T14:47:49.791Z,53.40
2018-08-31T14:50:18.319Z,53.50
2018-08-31T14:52:46.726Z,53.40
2018-08-31T14:55:15.450Z,53.30
2018-08-31T14:57:43.951Z,53.00
2018-08-31T15:00:12.523Z,52.50
2018-08-31T15:02:40.866Z,52.10
2018-08-31T15:05:09.190Z,51.60
2018-08-31T15:07:37.686Z,51.50
2018-08-31T15:10:06.225Z,51.80
2018-08-31T15:12:34.731Z,51.90
2018-08-31T15:15:03.104Z,52.20
2018-08-31T15:17:31.457Z,52.20
2018-08-31T15:19:59.827Z,52.10
2018-08-31T15:22:28.265Z,52.30
2018-08-31T15:24:56.645Z,51.70
2018-08-31T15:27:25.027Z,51.30
2018-08-31T15:29:53.549Z,51.20
2018-08-31T15:32:21.987Z,51.10
2018-08-31T15:34:50.362Z,50.90
2018-08-31T15:37:18.694Z,50.80
2018-08-31T15:39:47.222Z,50.90
2018-08-31T15:42:15.599Z,50.80
2018-08-31T15:44:44.643Z,50.60
2018-08-31T15:47:13.062Z,50.40
2018-08-31T15:49:41.476Z,50.40
2018-08-31T15:52:09.793Z,50.10
2018-08-31T15:54:38.283Z,50.10
2018-08-31T15:57:06.655Z,50.20
2018-08-31T15:59:35.031Z,50.40
2018-08-31T16:02:03.655Z,50.20
2018-08-31T16:04:32.244Z,50.00
2018-08-31T16:07:00.710Z,50.00
2018-08-31T16:09:29.082Z,50.10
2018-08-31T16:11:57.394Z,50.00
2018-08-31T16:14:25.712Z,50.10
2018-08-31T16:16:54.088Z,50.10
2018-08-31T16:19:22.518Z,50.00
2018-08-31T16:21:50.987Z,49.90
2018-08-31T16:24:20.402Z,49.90
2018-08-31T16:26:48.799Z,49.90
2018-08-31T16:29:17.234Z,49.80
2018-08-31T16:31:45.654Z,49.90
2018-08-31T16:34:14.108Z,49.70
2018-08-31T16:36:43.036Z,49.90
2018-08-31T16:39:11.438Z,50.00
2018-08-31T16:41:39.897Z,50.00
2018-08-31T16:44:08.310Z,50.10
2018-08-31T16:46:36.707Z,50.30
2018-08-31T16:49:05.106Z,50.00
2018-08-31T16:51:33.625Z,50.70
2018-08-31T16:54:02.138Z,50.20
2018-08-31T16:56:30.462Z,50.40
2018-08-31T16:58:58.805Z,51.00
2018-08-31T17:01:27.126Z,50.40
2018-08-31T17:03:55.506Z,50.50
2018-08-31T17:06:23.825Z,50.50
2018-08-31T17:08:52.208Z,50.60
2018-08-31T17:11:20.549Z,50.60
2018-08-31T17:13:48.996Z,50.70
2018-08-31T17:16:17.377Z,50.70
2018-08-31T17:18:45.736Z,50.80
2018-08-31T17:21:14.117Z,50.80
2018-08-31T17:23:42.471Z,50.70
2018-08-31T17:26:18.167Z,50.80
2018-08-31T17:28:51.956Z,50.80
2018-08-31T17:31:25.898Z,51.20
2018-08-31T17:33:59.699Z,50.90
2018-08-31T17:36:33.245Z,50.90
2018-08-31T17:39:01.645Z,50.90
2018-08-31T17:41:29.985Z,50.90
2018-08-31T17:43:58.336Z,50.90
2018-08-31T17:46:26.770Z,50.90
2018-08-31T17:48:55.180Z,50.90
2018-08-31T17:51:23.498Z,50.90
2018-08-31T17:53:52.185Z,50.80
2018-08-31T17:56:21.147Z,50.90
2018-08-31T17:58:49.760Z,51.20
2018-08-31T18:01:18.266Z,51.20
2018-08-31T18:03:46.654Z,51.00
2018-08-31T18:06:15.010Z,50.90
2018-08-31T18:08:43.450Z,50.90
2018-08-31T18:11:11.863Z,50.70
2018-08-31T18:13:40.256Z,50.70
2018-08-31T18:16:08.656Z,50.70
2018-08-31T18:18:36.972Z,50.80
2018-08-31T18:21:05.532Z,50.90
2018-08-31T18:23:33.902Z,50.90
2018-08-31T18:26:02.277Z,51.30
2018-08-31T18:28:32.550Z,51.70
2018-08-31T18:31:01.009Z,51.60
2018-08-31T18:33:29.500Z,51.40
2018-08-31T18:36:00.212Z,51.40
2018-08-31T18:38:28.993Z,51.60
2018-08-31T18:40:57.356Z,51.70
2018-08-31T18:43:25.688Z,51.70
2018-08-31T18:45:54.120Z,51.80
2018-08-31T18:48:22.454Z,51.80
2018-08-31T18:50:50.808Z,51.70
2018-08-31T18:53:19.184Z,51.60
2018-08-31T18:55:47.504Z,51.60
2018-08-31T18:58:16.092Z,51.60
2018-08-31T19:00:44.545Z,51.60
2018-08-31T19:03:13.128Z,51.60
2018-08-31T19:05:41.592Z,51.60
2018-08-31T19:08:10.018Z,51.70
2018-08-31T19:10:38.360Z,51.80
2018-08-31T19:13:06.849Z,51.90
2018-08-31T19:15:35.233Z,51.90
2018-08-31T19:18:03.595Z,52.00
2018-08-31T19:20:33.113Z,52.00
2018-08-31T19:23:01.551Z,52.10
2018-08-31T19:25:30.198Z,52.00
2018-08-31T19:27:58.749Z,51.90
2018-08-31T19:30:28.342Z,52.00
2018-08-31T19:32:56.720Z,52.10
2018-08-31T19:35:25.180Z,52.00
2018-08-31T19:37:53.747Z,52.20
2018-08-31T19:40:22.212Z,52.50
2018-08-31T19:42:50.626Z,52.40
2018-08-31T19:45:19.140Z,52.60
2018-08-31T19:47:47.468Z,52.90
2018-08-31T19:50:15.847Z,53.10
2018-08-31T19:52:44.368Z,53.10
2018-08-31T19:55:13.021Z,52.70
2018-08-31T19:57:41.539Z,52.60
2018-08-31T20:00:10.012Z,52.70
2018-08-31T20:02:38.353Z,52.70
2018-08-31T20:05:06.750Z,52.70
2018-08-31T20:07:35.260Z,52.70
2018-08-31T20:10:03.814Z,52.90
2018-08-31T20:12:32.321Z,52.90
2018-08-31T20:15:00.727Z,53.00
2018-08-31T20:17:29.083Z,53.30
2018-08-31T20:19:57.577Z,53.10
2018-08-31T20:22:26.021Z,53.10
2018-08-31T20:24:54.484Z,53.30
2018-08-31T20:27:22.877Z,53.20
2018-08-31T20:29:51.281Z,53.30
2018-08-31T20:32:19.725Z,53.60
2018-08-31T20:34:48.254Z,53.70
2018-08-31T20:37:16.709Z,53.60
2018-08-31T20:39:45.278Z,53.70
2018-08-31T20:42:13.909Z,53.90
2018-08-31T20:44:42.781Z,53.70
2018-08-31T20:47:11.412Z,53.70
2018-08-31T20:49:39.824Z,53.90
2018-08-31T20:52:08.326Z,53.90
2018-08-31T20:54:36.728Z,53.90
2018-08-31T20:57:05.482Z,54.00
2018-08-31T20:59:34.061Z,54.20
2018-08-31T21:02:02.532Z,54.30
2018-08-31T21:04:30.966Z,54.30
2018-08-31T21:06:59.368Z,54.20
2018-08-31T21:09:27.802Z,54.30
2018-08-31T21:11:56.217Z,54.30
2018-08-31T21:14:24.566Z,54.50
2018-08-31T21:16:52.945Z,54.70
2018-08-31T21:19:21.254Z,54.70
2018-08-31T21:21:49.644Z,55.40
2018-08-31T21:24:18.193Z,54.90
2018-08-31T21:26:46.565Z,54.90
2018-08-31T21:29:14.980Z,55.10
2018-08-31T21:31:43.345Z,55.10
2018-08-31T21:34:11.781Z,55.20
2018-08-31T21:36:40.121Z,55.10
2018-08-31T21:39:08.805Z,55.10
2018-08-31T21:41:37.218Z,55.10
2018-08-31T21:44:05.573Z,55.10
2018-08-31T21:46:34.054Z,55.20
2018-08-31T21:49:02.383Z,55.20
2018-08-31T21:51:30.929Z,55.10
2018-08-31T21:53:59.262Z,55.40
2018-08-31T21:56:27.597Z,55.40
2018-08-31T21:58:55.971Z,55.40
2018-08-31T22:01:29.776Z,55.40
2018-08-31T22:03:58.207Z,55.50
2018-08-31T22:06:26.635Z,55.50
2018-08-31T22:08:54.960Z,55.30
2018-08-31T22:11:23.382Z,55.40
2018-08-31T22:13:51.750Z,55.40
2018-08-31T22:16:20.221Z,55.40
2018-08-31T22:18:48.618Z,55.50
2018-08-31T22:21:16.978Z,55.30
2018-08-31T22:23:45.306Z,55.40
2018-08-31T22:26:13.697Z,55.40
2018-08-31T22:28:41.998Z,55.50
2018-08-31T22:31:10.348Z,55.60
2018-08-31T22:33:38.699Z,55.70
2018-08-31T22:36:07.067Z,55.80
2018-08-31T22:38:35.398Z,55.90
2018-08-31T22:41:03.788Z,56.00
2018-08-31T22:43:37.767Z,55.90
2018-08-31T22:46:05.988Z,56.00
2018-08-31T22:48:34.320Z,55.90
2018-08-31T22:51:02.628Z,56.60
2018-08-31T22:53:30.967Z,56.10
2018-08-31T22:55:59.581Z,56.20
2018-08-31T22:58:27.968Z,56.20
2018-08-31T23:00:56.342Z,56.30
2018-08-31T23:03:24.683Z,56.30
2018-08-31T23:05:53.012Z,56.40
2018-08-31T23:08:21.388Z,56.40
2018-08-31T23:10:49.725Z,56.40
2018-08-31T23:13:18.086Z,56.40
2018-08-31T23:15:46.445Z,56.50
2018-08-31T23:18:14.799Z,56.60
2018-08-31T23:20:43.162Z,56.60
2018-08-31T23:23:16.815Z,56.60
2018-08-31T23:25:49.742Z,56.70
2018-08-31T23:28:19.068Z,56.70
2018-08-31T23:30:47.400Z,56.70
2018-08-31T23:33:16.300Z,56.80
2018-08-31T23:35:44.911Z,57.50
2018-08-31T23:38:13.720Z,56.90
2018-08-31T23:40:42.051Z,56.90
2018-08-31T23:43:10.454Z,57.00
2018-08-31T23:45:38.770Z,57.00
2018-08-31T23:48:07.112Z,57.00
2018-08-31T23:50:35.453Z,57.00
2018-08-31T23:53:03.803Z,57.00
2018-08-31T23:55:32.145Z,57.00
2018-08-31T23:58:00.453Z,57.10
